Airfield :
LOGIN :

Register | Disclaimer

   EN    FR    IT 

 










Legend :    VFR   Marginal VFR   IFR   Intensive IFR   Very Intensive IFR
Visi :
Ceiling :
>= 8 km
>= 3000ft
5 to 8 km
1000 to 3000 ft
1500m to 5 km
500 to 1000 ft
800 to 1500m
200 to 500 ft
< 800m
< 200 ft
Symbols :   Thunderstorms  Fog  Heavy snow  Heavy precipitations  Wind > 20 kt
SIGMETs :     Misc.  Thunderstorms  Icing  Turbulence  Mountain Waves  Volcanic Ashes







- Airport Elevation : 106 ft
- IATA code : NRN


EDLV - Weeze

CURRENT METAR :
  • 100920Z 25008KT 9000 BKN035 05/04 Q1021

EXPIRED METARs :
  • 100850Z 25009KT CAVOK 04/03 Q1021
  • 100820Z 26011KT CAVOK 04/03 Q1020
  • 100750Z 25009KT 9999 VCSH BKN030 04/03 Q1020
  • 100720Z 27007KT 9999 BKN047 04/02 Q1020
  • 100650Z 28007KT CAVOK 04/03 Q1020

TAF TAF EDLV
Valid from the 10 at 06:00 until the 11 at 06:00 UTC


100500Z 1006/1106 28009KT 9999 SCT030
PROB30
TEMPO 1006/1011 28014KT 4500 -SHRA BKN012TCU
No reported NOTAMs for that airfield.



MET'MAP, your aeronautical weather chart ! - Copyright ORBIFLY December 2007 - Disclaimer

ORBIFLY MET'MAP TEAM :

Programming & Development : Alexandra Zaïnal
Concept & Development : Baudouin d'Aumeries
Co-Development & Prog : Marc-Olivier Méhu
Technical & hardware support : Manuel Goepfert

Contact : metmap@orbifly.com




SOURCES & CREDITS :

   NOAA